Time;durP1;ratioP1;P1;durP2;ratioP2;P2;SDS_P1;SDS_P2;PMS_P1;PMS_P2;Temp;Humidity;BMP_temperature;BMP_pressure;BME280_temperature;BME280_humidity;BME280_pressure;Samples;Min_cycle;Max_cycle;Signal;HPM_P1;HPM_P2
2022/11/08 00:01:30;;;;;;;17.02;4.38;;;12.80;99.90;;;;;;6369827;22;20438;-91
2022/11/08 00:03:50;;;;;;;;;;;;;;;;;;;;;
2022/11/08 00:14:48;;;;;;;15.15;3.83;;;12.80;99.90;;;;;;6370006;22;20014;-91
2022/11/08 00:17:16;;;;;;;12.73;3.42;;;12.20;99.90;;;;;;6341114;22;20010;-90
2022/11/08 00:19:54;;;;;;;15.65;3.33;;;12.70;99.90;;;;;;6370155;22;20021;-91
2022/11/08 00:22:29;;;;;;;11.00;3.30;;;12.80;99.90;;;;;;6369331;22;20033;-91
2022/11/08 00:25:12;;;;;;;11.00;3.15;;;12.70;99.90;;;;;;6342096;22;20010;-91
2022/11/08 00:27:38;;;;;;;13.30;3.15;;;12.70;99.90;;;;;;6342052;22;20284;-91
2022/11/08 00:30:09;;;;;;;12.85;3.05;;;12.80;99.90;;;;;;6340501;22;20014;-91
2022/11/08 00:38:51;;;;;;;14.05;3.88;;;12.60;99.90;;;;;;6306856;22;20026;-89
2022/11/08 00:41:19;;;;;;;10.98;3.00;;;12.60;99.90;;;;;;6308900;22;20015;-89
2022/11/08 00:43:59;;;;;;;16.17;3.75;;;12.70;99.90;;;;;;6283862;22;20037;-88
2022/11/08 00:46:25;;;;;;;15.05;3.63;;;12.60;99.90;;;;;;6279652;22;20026;-89
2022/11/08 00:49:16;;;;;;;11.38;3.20;;;12.50;99.90;;;;;;6280381;22;20019;-89
2022/11/08 00:51:56;;;;;;;14.00;3.58;;;12.50;99.90;;;;;;6279560;22;20051;-89
2022/11/08 00:54:22;;;;;;;15.15;3.50;;;12.40;99.90;;;;;;6280165;22;20051;-89
2022/11/08 00:56:49;;;;;;;10.73;2.80;;;12.40;99.90;;;;;;6279405;22;20054;-89
2022/11/08 00:59:39;;;;;;;12.73;3.42;;;12.40;99.90;;;;;;6331100;22;20018;-89
2022/11/08 01:06:06;;;;;;;12.82;3.50;;;12.40;99.90;;;;;;6368664;22;20020;-89
2022/11/08 01:08:32;;;;;;;14.93;3.13;;;12.30;99.90;;;;;;6366578;22;20014;-89
2022/11/08 01:11:38;;;;;;;10.07;3.25;;;12.20;99.90;;;;;;6341319;22;20338;-89
2022/11/08 01:17:45;;;;;;;15.05;3.30;;;12.20;99.90;;;;;;6369172;22;20338;-90
2022/11/08 01:20:20;;;;;;;11.15;3.10;;;13.30;99.90;;;;;;6368397;22;20422;-91
2022/11/08 01:22:52;;;;;;;14.48;3.47;;;13.20;99.90;;;;;;6341249;22;20018;-91
2022/11/08 01:25:40;;;;;;;11.90;2.92;;;11.90;99.90;;;;;;6369066;22;20030;-91
2022/11/08 01:28:09;;;;;;;12.48;3.47;;;12.00;99.90;;;;;;6340908;22;20019;-91
2022/11/08 01:30:40;;;;;;;15.18;3.50;;;12.60;99.90;;;;;;6369970;22;20014;-91
2022/11/08 01:33:07;;;;;;;12.95;3.28;;;11.90;99.90;;;;;;6340731;22;20056;-92
2022/11/08 01:35:37;;;;;;;14.95;3.47;;;11.20;99.90;;;;;;6340902;22;20021;-91
2022/11/08 01:38:52;;;;;;;12.13;3.22;;;13.60;99.90;;;;;;6369035;22;20380;-91
2022/11/08 01:42:01;;;;;;;16.75;3.10;;;11.40;99.90;;;;;;6368339;22;20014;-91
2022/11/08 01:45:08;;;;;;;10.70;3.30;;;11.90;99.90;;;;;;6368808;22;20022;-91
2022/11/08 01:47:34;;;;;;;13.23;3.28;;;11.90;99.90;;;;;;6368350;22;20015;-91
2022/11/08 01:53:44;;;;;;;11.90;3.65;;;11.30;99.90;;;;;;6355056;22;20016;-89
2022/11/08 01:56:11;;;;;;;12.05;3.20;;;13.60;99.90;;;;;;6368643;22;20022;-89
2022/11/08 01:58:51;;;;;;;10.95;3.10;;;11.20;99.90;;;;;;6341927;22;20052;-89
2022/11/08 02:01:17;;;;;;;12.55;3.88;;;12.10;99.90;;;;;;6340307;22;20056;-89
2022/11/08 02:03:42;;;;;;;13.90;3.47;;;11.00;99.90;;;;;;6369245;22;20465;-92
2022/11/08 02:06:12;;;;;;;11.10;3.53;;;12.90;99.90;;;;;;6369527;22;20077;-91
2022/11/08 02:08:39;;;;;;;14.20;3.42;;;12.60;99.90;;;;;;6340270;22;20053;-92
2022/11/08 02:11:14;;;;;;;12.55;3.47;;;11.10;99.90;;;;;;6369620;22;20452;-92
2022/11/08 02:13:58;;;;;;;9.90;2.90;;;11.90;99.90;;;;;;6341526;22;20390;-92
2022/11/08 02:16:24;;;;;;;12.95;3.40;;;12.00;99.90;;;;;;6370498;22;20396;-92
2022/11/08 02:18:55;;;;;;;13.50;3.70;;;11.40;99.90;;;;;;6342808;22;20018;-91
2022/11/08 02:22:16;;;;;;;12.07;3.08;;;13.60;99.90;;;;;;6343172;22;20455;-92
2022/11/08 02:24:53;;;;;;;12.82;3.15;;;12.10;99.90;;;;;;6189483;23;20099;-88
2022/11/08 02:27:25;;;;;;;11.10;3.08;;;11.40;99.90;;;;;;6188880;23;20020;-90
2022/11/08 02:30:03;;;;;;;9.02;3.13;;;13.40;99.90;;;;;;6188064;23;20036;-89
2022/11/08 02:32:51;;;;;;;;;;;;;;;;;;;;;
2022/11/08 02:35:49;;;;;;;14.02;3.33;;;11.90;99.90;;;;;;6215438;22;20093;-89
2022/11/08 02:38:16;;;;;;;13.32;3.10;;;13.10;99.90;;;;;;6341653;22;20372;-89
2022/11/08 02:41:16;;;;;;;13.95;3.38;;;13.10;99.90;;;;;;6343741;22;20050;-92
2022/11/08 02:43:50;;;;;;;14.27;3.47;;;12.70;99.90;;;;;;6339336;22;20018;-92
2022/11/08 02:46:18;;;;;;;10.35;2.97;;;12.80;99.90;;;;;;6370919;22;20017;-92
2022/11/08 02:48:44;;;;;;;13.55;3.03;;;11.60;99.90;;;;;;6342320;22;21050;-91
2022/11/08 02:51:10;;;;;;;10.90;3.08;;;11.20;99.90;;;;;;6341966;22;20057;-92
2022/11/08 02:57:18;;;;;;;13.13;3.13;;;11.20;99.90;;;;;;6346777;22;20018;-91
2022/11/08 02:59:50;;;;;;;11.05;2.80;;;12.80;99.90;;;;;;6342947;22;20014;-92
2022/11/08 03:02:18;;;;;;;15.48;3.50;;;11.40;99.90;;;;;;6341574;22;20011;-92
2022/11/08 03:06:00;;;;;;;12.18;3.00;;;12.80;99.90;;;;;;6368854;22;20042;-92
2022/11/08 03:08:26;;;;;;;11.20;3.00;;;11.30;99.90;;;;;;6317697;22;20015;-92
2022/11/08 03:10:52;;;;;;;12.88;2.97;;;11.40;99.90;;;;;;6370446;22;20505;-92
2022/11/08 03:13:18;;;;;;;9.77;2.83;;;12.00;99.90;;;;;;6341615;22;20074;-92
2022/11/08 03:15:46;;;;;;;13.85;3.65;;;10.70;99.90;;;;;;6370684;22;20014;-92
2022/11/08 03:18:23;;;;;;;10.05;2.85;;;10.40;99.90;;;;;;6370347;22;20014;-92
2022/11/08 03:20:49;;;;;;;12.57;3.47;;;12.40;99.90;;;;;;6370755;22;20029;-92
2022/11/08 03:23:20;;;;;;;12.18;3.20;;;11.90;99.90;;;;;;6342114;22;20442;-91
2022/11/08 03:25:52;;;;;;;10.90;3.00;;;11.10;99.90;;;;;;6341944;22;20018;-92
2022/11/08 03:30:51;;;;;;;14.25;3.00;;;11.10;99.90;;;;;;6347791;22;20018;-91
2022/11/08 03:33:17;;;;;;;14.88;3.60;;;10.40;99.90;;;;;;6341439;22;20014;-91
2022/11/08 03:35:55;;;;;;;12.43;3.33;;;12.30;99.90;;;;;;6341892;22;20014;-91
2022/11/08 03:46:05;;;;;;;15.10;3.50;;;11.00;99.90;;;;;;6370599;22;20025;-91
2022/11/08 03:48:59;;;;;;;10.20;3.00;;;11.00;99.90;;;;;;6342622;22;20075;-92
2022/11/08 03:51:28;;;;;;;10.52;2.83;;;11.20;99.90;;;;;;6342726;22;20349;-91
2022/11/08 03:53:56;;;;;;;10.75;3.00;;;11.80;99.90;;;;;;6370257;22;20014;-92
2022/11/08 03:56:30;;;;;;;12.05;3.50;;;11.20;99.90;;;;;;6342547;22;20011;-91
2022/11/08 03:59:14;;;;;;;11.95;3.25;;;11.30;99.90;;;;;;6341748;22;20053;-91
2022/11/08 04:01:58;;;;;;;14.35;3.17;;;12.50;99.90;;;;;;6342335;22;20018;-92
2022/11/08 04:04:30;;;;;;;10.88;3.08;;;10.90;99.90;;;;;;6370384;22;20015;-92
2022/11/08 04:07:11;;;;;;;14.23;3.00;;;12.10;99.90;;;;;;6342104;22;20053;-92
2022/11/08 04:09:36;;;;;;;9.85;3.38;;;12.50;99.90;;;;;;6341991;22;20015;-91
2022/11/08 04:15:20;;;;;;;13.55;3.63;;;10.80;99.90;;;;;;6370248;22;20054;-91
2022/11/08 04:23:38;;;;;;;12.60;3.53;;;10.70;99.90;;;;;;6359669;22;20042;-92
2022/11/08 04:26:07;;;;;;;11.77;3.60;;;10.50;99.90;;;;;;6348798;22;20076;-92
2022/11/08 04:28:35;;;;;;;10.77;3.38;;;11.70;99.90;;;;;;6371101;22;20075;-92
2022/11/08 04:33:35;;;;;;;11.38;3.20;;;10.60;99.90;;;;;;6370064;22;20026;-91
2022/11/08 04:36:26;;;;;;;12.38;3.80;;;10.10;99.90;;;;;;6341492;22;20101;-92
2022/11/08 04:39:12;;;;;;;11.40;3.35;;;10.70;99.90;;;;;;6370154;22;20470;-92
2022/11/08 04:41:49;;;;;;;14.60;3.50;;;11.40;99.90;;;;;;6370588;22;20464;-92
2022/11/08 04:44:18;;;;;;;11.90;3.22;;;10.30;99.90;;;;;;6341648;22;20022;-92
2022/11/08 04:46:55;;;;;;;11.80;3.78;;;11.00;99.90;;;;;;6370454;22;20017;-92
2022/11/08 04:49:30;;;;;;;10.52;3.40;;;10.30;99.90;;;;;;6346527;22;20029;-92
2022/11/08 04:51:56;;;;;;;13.00;3.45;;;10.50;99.90;;;;;;6342738;22;20010;-92
2022/11/08 04:54:46;;;;;;;11.93;3.67;;;9.70;99.90;;;;;;6370475;22;20063;-92
2022/11/08 04:57:12;;;;;;;13.10;3.78;;;11.40;99.90;;;;;;6374721;22;20014;-92
2022/11/08 04:59:38;;;;;;;10.85;3.50;;;11.10;99.90;;;;;;6342643;22;20106;-92
2022/11/08 05:02:18;;;;;;;12.27;3.47;;;11.20;99.90;;;;;;6341425;22;20010;-91
2022/11/08 05:04:44;;;;;;;12.38;3.53;;;10.10;99.90;;;;;;6340710;22;20020;-92
2022/11/08 05:10:41;;;;;;;11.45;3.20;;;10.50;99.90;;;;;;6275619;22;20027;-92
2022/11/08 05:13:06;;;;;;;10.95;3.40;;;10.20;99.90;;;;;;6276349;22;20384;-91
2022/11/08 05:15:47;;;;;;;10.45;3.17;;;10.30;99.90;;;;;;6248417;22;20549;-91
2022/11/08 05:18:21;;;;;;;12.07;3.40;;;9.50;99.90;;;;;;6248279;22;20105;-92
2022/11/08 05:23:58;;;;;;;10.68;3.20;;;11.20;99.90;;;;;;6276820;22;20028;-91
2022/11/08 05:26:32;;;;;;;11.45;4.13;;;10.20;99.90;;;;;;6275627;22;20427;-91
2022/11/08 05:28:57;;;;;;;11.75;3.63;;;11.70;99.90;;;;;;6277432;22;20105;-92
2022/11/08 05:31:23;;;;;;;13.90;3.58;;;11.10;99.90;;;;;;6248901;22;20475;-91
2022/11/08 05:33:59;;;;;;;10.73;4.00;;;9.70;99.90;;;;;;6248854;22;20022;-90
2022/11/08 05:36:31;;;;;;;12.02;4.05;;;11.50;99.90;;;;;;6352497;22;20060;-91
2022/11/08 05:39:28;;;;;;;11.20;4.00;;;9.80;99.90;;;;;;6369859;22;20029;-90
2022/11/08 05:41:54;;;;;;;11.80;3.60;;;10.40;99.90;;;;;;6370097;22;20389;-91
2022/11/08 05:44:25;;;;;;;10.18;3.55;;;9.90;99.90;;;;;;6369636;22;20014;-91
2022/11/08 05:47:07;;;;;;;12.48;3.80;;;11.00;99.90;;;;;;6344919;22;20010;-92
2022/11/08 05:53:20;;;;;;;17.23;6.03;;;10.30;99.90;;;;;;6373257;22;20012;-91
2022/11/08 05:55:46;;;;;;;22.10;9.05;;;9.10;99.90;;;;;;6374917;22;20069;-91
2022/11/08 05:58:18;;;;;;;23.35;8.68;;;10.30;99.90;;;;;;6292263;22;20045;-91
2022/11/08 06:04:25;;;;;;;14.45;5.28;;;10.20;99.90;;;;;;6372023;22;20013;-91
2022/11/08 06:06:50;;;;;;;13.88;4.32;;;10.00;99.90;;;;;;6372864;22;20014;-92
2022/11/08 06:09:19;;;;;;;12.95;4.32;;;10.00;99.90;;;;;;6374957;22;20042;-91
2022/11/08 06:12:00;;;;;;;13.13;4.32;;;10.00;99.90;;;;;;6344260;22;20010;-92
2022/11/08 06:14:29;;;;;;;13.27;4.43;;;11.10;99.90;;;;;;6371457;22;20014;-91
2022/11/08 06:17:04;;;;;;;12.55;4.47;;;9.90;99.90;;;;;;6346820;22;20036;-92
2022/11/08 06:19:35;;;;;;;12.98;4.32;;;8.90;99.90;;;;;;6344378;22;20101;-92
2022/11/08 06:22:13;;;;;;;13.70;4.40;;;9.70;99.90;;;;;;6343464;22;20363;-91
2022/11/08 06:24:39;;;;;;;12.52;4.15;;;11.40;99.90;;;;;;6348838;22;20071;-92
2022/11/08 06:27:07;;;;;;;13.00;4.00;;;10.70;99.90;;;;;;6343104;22;20067;-92
2022/11/08 06:35:24;;;;;;;9.77;3.83;;;9.90;99.90;;;;;;6367714;22;20070;-86
2022/11/08 06:38:05;;;;;;;12.93;4.05;;;10.40;99.90;;;;;;6343448;22;20041;-85
2022/11/08 06:40:31;;;;;;;11.70;4.10;;;11.40;99.90;;;;;;6342779;22;20053;-84
2022/11/08 06:54:18;;;;;;;12.77;3.70;;;10.00;99.90;;;;;;6371014;22;20075;-87
2022/11/08 06:56:54;;;;;;;16.63;4.78;;;11.10;99.90;;;;;;6367864;22;20018;-86
2022/11/08 06:59:32;;;;;;;9.80;3.50;;;9.40;99.90;;;;;;6371150;22;20033;-87
2022/11/08 07:02:20;;;;;;;12.20;3.72;;;10.70;99.90;;;;;;6342539;22;20010;-87
2022/11/08 07:04:51;;;;;;;12.05;3.50;;;11.60;99.90;;;;;;6212980;23;20051;-85
2022/11/08 07:07:17;;;;;;;11.82;3.90;;;11.30;99.90;;;;;;6188301;23;20326;-87
2022/11/08 07:09:42;;;;;;;10.88;3.40;;;9.80;99.90;;;;;;6342518;22;20064;-85
2022/11/08 07:12:08;;;;;;;12.57;3.33;;;11.20;99.90;;;;;;6370279;22;20018;-85
2022/11/08 07:14:34;;;;;;;10.13;3.60;;;10.10;99.90;;;;;;6371107;22;20267;-86
2022/11/08 07:17:00;;;;;;;13.30;3.50;;;10.10;99.90;;;;;;6342429;22;20063;-86
2022/11/08 07:19:25;;;;;;;10.53;2.80;;;10.20;99.90;;;;;;6370102;22;20303;-86
2022/11/08 07:21:51;;;;;;;11.87;3.23;;;10.20;99.90;;;;;;6370610;22;20049;-86
2022/11/08 07:24:32;;;;;;;10.07;3.33;;;11.50;99.90;;;;;;6370884;22;20082;-86
2022/11/08 07:27:06;;;;;;;11.30;3.22;;;10.10;99.90;;;;;;6342646;22;20088;-86
2022/11/08 07:29:41;;;;;;;11.25;3.40;;;10.10;99.90;;;;;;6342178;22;20506;-86
2022/11/08 07:32:06;;;;;;;9.65;3.10;;;10.30;99.90;;;;;;6369835;22;20021;-86
2022/11/08 07:34:32;;;;;;;9.18;2.85;;;11.60;99.90;;;;;;6342167;22;20042;-86
2022/11/08 07:37:07;;;;;;;12.27;3.10;;;10.80;99.90;;;;;;6370460;22;20437;-85
2022/11/08 07:39:39;;;;;;;10.73;3.40;;;10.40;99.90;;;;;;6370140;22;20010;-86
2022/11/08 07:42:19;;;;;;;8.45;2.97;;;11.50;99.90;;;;;;6342580;22;20021;-86
2022/11/08 07:45:05;;;;;;;13.03;3.30;;;10.50;99.90;;;;;;6342496;22;20017;-86
2022/11/08 07:47:40;;;;;;;9.53;3.50;;;10.40;99.90;;;;;;6370730;22;20014;-86
2022/11/08 07:50:17;;;;;;;8.85;2.83;;;10.60;99.90;;;;;;6341964;22;20019;-85
2022/11/08 07:53:04;;;;;;;8.77;3.00;;;10.10;99.90;;;;;;6369503;22;20018;-87
2022/11/08 07:55:39;;;;;;;10.52;3.05;;;11.80;99.90;;;;;;6370865;22;20026;-85
2022/11/08 07:58:16;;;;;;;8.30;2.80;;;10.60;99.90;;;;;;6342356;22;20452;-86
2022/11/08 08:00:43;;;;;;;9.57;3.00;;;12.20;99.90;;;;;;6352633;22;20025;-86
2022/11/08 08:03:11;;;;;;;9.30;3.00;;;12.10;99.90;;;;;;6372352;22;20010;-85
2022/11/08 08:05:39;;;;;;;10.13;3.03;;;10.80;99.90;;;;;;6344936;22;20015;-86
2022/11/08 08:08:25;;;;;;;11.48;3.25;;;10.70;99.90;;;;;;6348951;22;20092;-86
2022/11/08 08:18:41;;;;;;;11.65;3.00;;;10.80;99.90;;;;;;6368898;22;20010;-86
2022/11/08 08:21:07;;;;;;;11.00;3.10;;;10.90;99.90;;;;;;6369438;22;20014;-84
2022/11/08 08:24:10;;;;;;;8.85;3.10;;;12.40;99.90;;;;;;6369868;22;20057;-84
2022/11/08 08:27:01;;;;;;;8.98;2.60;;;10.30;99.90;;;;;;6341804;22;20097;-84
2022/11/08 08:29:41;;;;;;;11.80;2.92;;;11.20;99.90;;;;;;6341277;22;20022;-83
2022/11/08 08:32:10;;;;;;;8.98;2.80;;;11.50;99.90;;;;;;6341659;22;20010;-84
2022/11/08 08:34:42;;;;;;;9.23;2.72;;;11.10;99.90;;;;;;6367943;22;20089;-84
2022/11/08 08:37:32;;;;;;;9.25;2.50;;;11.00;99.90;;;;;;6368909;22;20014;-84
2022/11/08 08:39:57;;;;;;;9.23;2.80;;;11.30;99.90;;;;;;6341294;22;20010;-84
2022/11/08 08:42:26;;;;;;;8.57;2.78;;;11.30;99.90;;;;;;6340484;22;20481;-83
2022/11/08 08:44:52;;;;;;;11.15;2.60;;;12.20;99.90;;;;;;6341782;22;20447;-86
2022/11/08 08:47:17;;;;;;;9.88;2.75;;;11.50;99.90;;;;;;6368831;22;20063;-84
2022/11/08 08:49:46;;;;;;;9.18;2.72;;;11.60;99.90;;;;;;6368826;22;20014;-85
2022/11/08 08:52:18;;;;;;;10.20;2.75;;;11.70;99.90;;;;;;6341068;22;20022;-84
2022/11/08 08:54:55;;;;;;;11.38;2.78;;;11.70;99.90;;;;;;6340655;22;20010;-83
2022/11/08 08:57:21;;;;;;;10.90;2.95;;;11.80;99.90;;;;;;6340652;22;20335;-85
2022/11/08 09:00:16;;;;;;;9.13;2.65;;;13.40;99.90;;;;;;6369876;22;20014;-84
2022/11/08 09:02:42;;;;;;;9.52;2.60;;;11.90;99.90;;;;;;6358799;22;20143;-85
2022/11/08 09:05:20;;;;;;;15.13;3.22;;;11.80;99.90;;;;;;6367912;22;20311;-85
2022/11/08 09:07:46;;;;;;;8.30;2.75;;;13.60;99.90;;;;;;6340749;22;20368;-85
2022/11/08 09:10:15;;;;;;;10.00;2.40;;;12.00;99.90;;;;;;6339846;22;20019;-85
2022/11/08 09:13:14;;;;;;;9.63;2.95;;;13.10;99.90;;;;;;6367776;22;20021;-85
2022/11/08 09:15:58;;;;;;;;;;;;;;;;;;;;;
2022/11/08 09:18:51;;;;;;;10.82;2.33;;;12.30;99.90;;;;;;6293425;22;20016;-84
2022/11/08 09:21:17;;;;;;;8.77;2.40;;;12.40;99.90;;;;;;6368390;22;20093;-85
2022/11/08 09:26:39;;;;;;;8.18;2.42;;;11.90;99.90;;;;;;6361252;22;20022;-87
2022/11/08 09:32:52;;;;;;;8.63;2.30;;;12.90;99.90;;;;;;6370984;22;20014;-84
2022/11/08 09:37:53;;;;;;;8.25;2.30;;;13.00;99.90;;;;;;6370914;22;20026;-84
2022/11/08 09:40:29;;;;;;;7.20;2.60;;;13.90;99.90;;;;;;6369753;22;20010;-84
2022/11/08 09:43:41;;;;;;;6.82;2.50;;;13.20;99.90;;;;;;6343943;22;20341;-84
2022/11/08 09:46:41;;;;;;;7.47;2.40;;;13.20;99.90;;;;;;6372935;22;20042;-85
2022/11/08 09:49:31;;;;;;;8.65;2.42;;;13.10;99.90;;;;;;6281915;22;20540;-84
2022/11/08 09:51:58;;;;;;;9.48;2.45;;;14.60;99.90;;;;;;6372203;22;20068;-85
2022/11/08 10:02:20;;;;;;;7.65;2.20;;;13.80;99.90;;;;;;6373875;22;20021;-85
2022/11/08 10:05:14;;;;;;;8.02;2.17;;;13.90;99.90;;;;;;6311694;22;20023;-87
2022/11/08 10:08:02;;;;;;;9.75;2.50;;;13.20;99.90;;;;;;6339217;22;20010;-87
2022/11/08 10:11:14;;;;;;;6.95;2.40;;;15.40;99.90;;;;;;6311691;22;20021;-86
2022/11/08 10:14:24;;;;;;;10.18;2.47;;;13.90;99.90;;;;;;6311447;22;20011;-86
2022/11/08 10:17:33;;;;;;;7.70;2.30;;;14.10;99.90;;;;;;6339544;22;20019;-85
2022/11/08 10:20:45;;;;;;;8.48;2.50;;;14.00;99.90;;;;;;6338052;22;20450;-85
2022/11/08 10:23:49;;;;;;;8.52;2.40;;;14.10;99.90;;;;;;6311948;22;20067;-85
2022/11/08 10:26:48;;;;;;;9.43;2.60;;;14.80;99.90;;;;;;6275447;22;20064;-84
2022/11/08 10:29:38;;;;;;;7.45;2.20;;;14.20;99.90;;;;;;6339087;22;20019;-85
2022/11/08 10:32:13;;;;;;;8.82;2.42;;;13.80;99.90;;;;;;6339369;22;20011;-85
2022/11/08 10:35:37;;;;;;;7.57;2.17;;;14.30;99.90;;;;;;6325871;22;20162;-85
2022/11/08 10:38:32;;;;;;;6.93;2.35;;;14.30;99.90;;;;;;6311441;22;20007;-86
2022/11/08 10:41:25;;;;;;;6.68;2.33;;;14.40;99.90;;;;;;6311900;22;20019;-85
2022/11/08 10:51:25;;;;;;;9.00;2.50;;;14.30;99.90;;;;;;6356376;22;20083;-85
2022/11/08 10:53:51;;;;;;;9.82;2.45;;;15.60;99.90;;;;;;6342554;22;20010;-85
2022/11/08 10:56:29;;;;;;;8.70;2.05;;;15.20;99.90;;;;;;6341289;22;20018;-85
2022/11/08 10:59:42;;;;;;;7.85;2.30;;;14.50;99.90;;;;;;6371535;22;20021;-86
2022/11/08 11:02:32;;;;;;;7.40;2.40;;;13.60;99.90;;;;;;6342275;22;20014;-86
2022/11/08 11:05:25;;;;;;;8.45;2.60;;;14.30;99.90;;;;;;6342542;22;20011;-87
2022/11/08 11:08:00;;;;;;;9.50;2.70;;;14.40;99.90;;;;;;6342210;22;20097;-85
2022/11/08 11:10:47;;;;;;;8.02;2.20;;;14.40;99.90;;;;;;6370160;22;20010;-86
2022/11/08 11:13:25;;;;;;;10.38;2.53;;;14.40;99.90;;;;;;6345877;22;20445;-86
2022/11/08 11:15:52;;;;;;;9.82;2.53;;;14.40;99.90;;;;;;6343393;22;20054;-86
2022/11/08 11:18:28;;;;;;;7.97;2.75;;;15.10;99.90;;;;;;6341226;22;20021;-86
2022/11/08 11:25:47;;;;;;;8.07;2.33;;;14.20;99.90;;;;;;6366370;22;20017;-87
2022/11/08 11:28:56;;;;;;;7.50;2.30;;;14.50;99.90;;;;;;6339692;22;20021;-86
2022/11/08 11:31:22;;;;;;;9.38;2.53;;;14.40;99.90;;;;;;6340579;22;20018;-86
2022/11/08 11:39:21;;;;;;;9.80;2.40;;;14.60;99.90;;;;;;6366575;22;20018;-85
2022/11/08 11:42:27;;;;;;;7.00;2.30;;;14.60;99.90;;;;;;6341910;22;20101;-85
2022/11/08 11:45:24;;;;;;;7.47;2.35;;;14.80;99.90;;;;;;6371407;22;20014;-87
2022/11/08 11:48:35;;;;;;;8.23;2.33;;;14.90;99.90;;;;;;6342368;22;20042;-86
2022/11/08 11:51:13;;;;;;;8.98;2.70;;;15.00;99.90;;;;;;6213151;23;20042;-86
2022/11/08 11:53:46;;;;;;;7.28;2.42;;;14.90;99.90;;;;;;6212750;23;20021;-84
2022/11/08 11:56:44;;;;;;;7.90;2.38;;;16.50;99.90;;;;;;6211355;23;20028;-86
2022/11/08 12:27:41;;;;;;;9.18;2.33;;;14.80;99.90;;;;;;6369006;22;20067;-85
2022/11/08 12:34:07;;;;;;;7.43;2.38;;;14.20;99.90;;;;;;6364331;22;20105;-85
2022/11/08 12:37:00;;;;;;;7.38;2.20;;;15.50;99.90;;;;;;6186794;23;20012;-86
2022/11/08 12:39:33;;;;;;;8.27;2.15;;;14.20;99.90;;;;;;6244377;22;20017;-86
2022/11/08 12:42:33;;;;;;;6.10;2.20;;;14.90;99.90;;;;;;6369610;22;20015;-86
2022/11/08 12:45:18;;;;;;;24.83;3.08;;;14.80;99.90;;;;;;6341670;22;20026;-84
2022/11/08 12:48:11;;;;;;;7.55;2.20;;;14.80;99.90;;;;;;6336331;22;20093;-85
2022/11/08 12:51:13;;;;;;;7.55;2.35;;;14.80;99.90;;;;;;6339731;22;20015;-85
2022/11/08 12:54:18;;;;;;;7.00;2.35;;;14.70;99.90;;;;;;6336819;22;20343;-85
2022/11/08 13:12:21;;;;;;;7.40;2.30;;;15.40;99.90;;;;;;6349100;22;20112;-85
2022/11/08 13:15:38;;;;;;;8.13;2.33;;;15.40;99.90;;;;;;6212217;23;20021;-86
2022/11/08 13:21:38;;;;;;;8.23;2.43;;;15.50;99.90;;;;;;6186476;23;20449;-85
2022/11/08 13:24:03;;;;;;;7.13;2.15;;;15.90;99.90;;;;;;6362497;22;20243;-85
2022/11/08 13:26:36;;;;;;;8.18;2.35;;;16.90;99.90;;;;;;6369274;22;20014;-84
2022/11/08 13:29:17;;;;;;;8.02;2.22;;;15.20;99.90;;;;;;6369751;22;20014;-85
2022/11/08 13:31:57;;;;;;;9.45;2.55;;;15.80;99.90;;;;;;6369583;22;20019;-85
2022/11/08 13:34:42;;;;;;;7.65;2.45;;;15.40;99.90;;;;;;6369528;22;20046;-84
2022/11/08 13:37:37;;;;;;;9.00;2.90;;;15.30;99.90;;;;;;6336624;22;20018;-84
2022/11/08 13:40:21;;;;;;;7.70;2.42;;;15.30;99.90;;;;;;6286271;22;20311;-84
2022/11/08 13:43:40;;;;;;;6.75;2.10;;;15.20;99.90;;;;;;6339928;22;20093;-85
2022/11/08 13:54:19;;;;;;;10.70;3.53;;;15.10;99.90;;;;;;6337629;22;20014;-85
2022/11/08 13:56:55;;;;;;;12.18;3.00;;;15.00;99.90;;;;;;6337735;22;20011;-85
2022/11/08 14:07:25;;;;;;;9.05;3.00;;;14.30;99.90;;;;;;6330978;22;20033;-86
2022/11/08 14:10:41;;;;;;;9.02;2.83;;;14.10;99.90;;;;;;6310568;22;20018;-86
2022/11/08 14:17:04;;;;;;;30.60;17.38;;;14.60;99.90;;;;;;6339097;22;20019;-86
2022/11/08 14:19:50;;;;;;;9.35;2.78;;;14.70;99.90;;;;;;6152799;23;20130;-86
2022/11/08 14:22:28;;;;;;;8.90;3.00;;;14.60;99.90;;;;;;6315983;22;20090;-86
2022/11/08 14:25:19;;;;;;;11.45;3.30;;;14.70;99.90;;;;;;6330963;22;20070;-86
2022/11/08 14:27:44;;;;;;;8.85;2.95;;;14.60;99.90;;;;;;6337957;22;20029;-84
2022/11/08 14:36:51;;;;;;;10.48;2.80;;;14.60;99.90;;;;;;6277079;22;19992;-85
2022/11/08 14:39:25;;;;;;;8.93;2.95;;;15.80;99.90;;;;;;6277946;22;20027;-86
2022/11/08 14:42:19;;;;;;;9.23;2.60;;;14.60;99.90;;;;;;6275565;22;20467;-86
2022/11/08 14:44:45;;;;;;;9.02;2.42;;;14.60;99.90;;;;;;6249876;22;20012;-86
2022/11/08 14:47:30;;;;;;;9.65;2.92;;;15.90;99.90;;;;;;6276972;22;20015;-86
2022/11/08 14:50:04;;;;;;;8.10;2.97;;;14.20;99.90;;;;;;6249549;22;20022;-86
2022/11/08 14:52:31;;;;;;;9.85;3.15;;;14.50;99.90;;;;;;6249320;22;20015;-86
2022/11/08 14:55:44;;;;;;;7.60;2.70;;;15.80;99.90;;;;;;6249273;22;20329;-86
2022/11/08 14:58:13;;;;;;;8.80;2.75;;;14.40;99.90;;;;;;6249314;22;20027;-87
2022/11/08 15:00:44;;;;;;;9.25;2.75;;;15.80;99.90;;;;;;6249897;22;20012;-86
2022/11/08 15:03:35;;;;;;;9.43;3.25;;;14.40;99.90;;;;;;6248100;22;20565;-86
2022/11/08 15:06:13;;;;;;;10.98;2.70;;;15.70;99.90;;;;;;6276503;22;20086;-86
2022/11/08 15:09:01;;;;;;;9.70;2.70;;;14.30;99.90;;;;;;6245056;22;20024;-87
2022/11/08 15:11:39;;;;;;;10.18;3.28;;;14.80;99.90;;;;;;6275830;22;20432;-87
2022/11/08 15:14:10;;;;;;;7.50;2.35;;;15.00;99.90;;;;;;6248974;22;20113;-86
2022/11/08 15:17:11;;;;;;;7.25;2.70;;;14.20;99.90;;;;;;6248580;22;20022;-87
2022/11/08 15:23:33;;;;;;;10.05;3.83;;;14.20;99.90;;;;;;6275736;22;20394;-87
2022/11/08 15:25:59;;;;;;;11.75;2.80;;;15.20;99.90;;;;;;6276572;22;20023;-87
2022/11/08 15:28:39;;;;;;;9.18;2.78;;;15.30;99.90;;;;;;6249128;22;20016;-87
2022/11/08 15:35:32;;;;;;;9.10;2.92;;;14.10;99.90;;;;;;6276090;22;20513;-87
2022/11/08 15:38:37;;;;;;;7.75;2.40;;;14.00;99.90;;;;;;6277502;22;20028;-87
2022/11/08 15:41:25;;;;;;;8.88;2.95;;;13.70;99.90;;;;;;6249590;22;20022;-87
2022/11/08 15:44:28;;;;;;;8.43;2.70;;;14.00;99.90;;;;;;6249641;22;20022;-87
2022/11/08 15:46:59;;;;;;;12.15;3.50;;;13.90;99.90;;;;;;6276998;22;20019;-87
2022/11/08 15:49:33;;;;;;;11.20;3.08;;;13.70;99.90;;;;;;6276080;22;20129;-87
2022/11/08 15:52:07;;;;;;;12.82;5.45;;;13.90;99.90;;;;;;6248886;22;20431;-87
2022/11/08 15:54:48;;;;;;;7.93;2.70;;;14.10;99.90;;;;;;6249096;22;20015;-87
2022/11/08 16:04:11;;;;;;;9.00;2.78;;;13.80;99.90;;;;;;6338315;22;20098;-86
2022/11/08 16:06:37;;;;;;;8.98;2.95;;;14.80;99.90;;;;;;6309140;22;20458;-87
2022/11/08 16:30:56;;;;;;;10.98;3.00;;;13.50;99.90;;;;;;6274225;22;20568;-91
2022/11/08 16:33:25;;;;;;;9.25;2.85;;;14.90;99.90;;;;;;6275430;22;20531;-91
2022/11/08 16:36:35;;;;;;;9.00;2.67;;;13.50;99.90;;;;;;6273406;22;20446;-91
2022/11/08 16:43:27;;;;;;;7.53;2.85;;;13.20;99.90;;;;;;6189034;23;20016;-89
2022/11/08 16:46:20;;;;;;;10.05;2.92;;;12.90;99.90;;;;;;6157704;23;20060;-90
2022/11/08 16:48:58;;;;;;;8.68;2.83;;;13.50;99.90;;;;;;6157371;23;20502;-89
2022/11/08 16:52:07;;;;;;;8.90;2.63;;;14.90;99.90;;;;;;6191689;23;20030;-89
2022/11/08 16:54:48;;;;;;;10.38;2.97;;;13.50;99.90;;;;;;6242302;23;20110;-89
2022/11/08 17:59:17;;;;;;;7.45;2.70;;;14.40;99.90;;;;;;6345147;22;20080;-92
2022/11/08 18:05:19;;;;;;;10.18;3.17;;;13.00;99.90;;;;;;6340863;22;20113;-92
2022/11/08 18:08:19;;;;;;;9.40;3.20;;;12.60;99.90;;;;;;6215540;23;20092;-92
2022/11/08 18:10:59;;;;;;;9.43;3.28;;;13.00;99.90;;;;;;6209676;23;20095;-91
2022/11/08 18:47:27;;;;;;;10.07;3.05;;;13.10;99.90;;;;;;6339723;22;20078;-92
2022/11/08 18:51:20;;;;;;;8.73;2.83;;;13.10;99.90;;;;;;6339126;22;20037;-92
2022/11/08 18:58:14;;;;;;;8.85;3.08;;;12.30;99.90;;;;;;6308632;22;20013;-91
2022/11/08 19:01:27;;;;;;;;;;;;;;;;;;;;;
2022/11/08 19:05:05;;;;;;;8.68;3.47;;;13.50;99.90;;;;;;6217319;22;20049;-92
2022/11/08 19:08:26;;;;;;;8.55;3.22;;;14.80;99.90;;;;;;6297514;22;20068;-92
2022/11/08 19:11:57;;;;;;;9.13;3.38;;;13.30;99.90;;;;;;6233706;22;20057;-92
2022/11/08 19:15:36;;;;;;;;;;;;;;;;;;;;;
2022/11/08 19:51:20;;;;;;;8.93;2.55;;;13.30;99.90;;;;;;6248753;22;20074;-92
2022/11/08 20:00:51;;;;;;;10.95;2.92;;;13.40;99.90;;;;;;6279085;22;20019;-92
2022/11/08 20:11:11;;;;;;;;;;;;;;;;;;;;;
2022/11/08 20:14:54;;;;;;;12.88;3.30;;;13.30;99.90;;;;;;6228113;22;20137;-90
2022/11/08 20:29:36;;;;;;;9.50;2.85;;;13.70;99.90;;;;;;6246479;23;20028;-90
2022/11/08 20:32:04;;;;;;;9.75;2.50;;;14.00;99.90;;;;;;6219186;23;20069;-90
2022/11/08 20:41:57;;;;;;;11.43;4.63;;;14.00;99.90;;;;;;6242796;23;20019;-90
2022/11/08 20:51:19;;;;;;;7.70;2.70;;;12.50;99.90;;;;;;6105422;23;20026;-91
2022/11/08 20:54:06;;;;;;;10.13;3.30;;;13.40;99.90;;;;;;6101481;23;20013;-90